Weather reports worldwide

Advertisment
Adra, Spain (8486): temperature & dewpoint: 06.12.2019 12:00:00 - 12.12.2019 12:00:00 (CET)Adra, Spain (8486): wind speed & gusts: 06.12.2019 12:00:00 - 12.12.2019 12:00:00 (CET)Adra, Spain (8486): wind direction: 06.12.2019 12:00:00 - 12.12.2019 12:00:00 (CET)Adra, Spain (8486): reduced air pressure: 06.12.2019 12:00:00 - 12.12.2019 12:00:00 (CET)Adra, Spain (8486): precipitation: 06.12.2019 12:00:00 - 12.12.2019 12:00:00 (CET)
Date & Time tt [°C] td [°C] ff [km/h] ff [kn] fx [km/h] fx [kn] dd ppp [hPa] rr [mm]
12.12.2019 12:00:00 - - - - - - - - -
12.12.2019 11:00:00 16,3 5,0 13 7 27 14 NNE 1022,7 0,0
12.12.2019 10:00:00 14,5 4,5 9 5 21 11 NNE 1024,1 0,0
12.12.2019 09:00:00 14,2 5,0 10 5 21 11 NNE 1024,2 0,0
12.12.2019 08:00:00 14,1 5,0 10 5 19 10 NNE 1023,7 0,0
12.12.2019 07:00:00 14,8 4,8 8 4 18 10 NNE 1024,1 -
12.12.2019 06:00:00 14,9 4,6 10 5 17 9 NNE 1024,3 0,0
12.12.2019 05:00:00 15,2 4,8 8 5 22 12 NNE 1024,5 0,0
12.12.2019 04:00:00 15,0 4,6 10 6 22 12 NNE 1024,7 0,0
12.12.2019 03:00:00 15,2 4,8 11 6 27 15 NNE 1024,9 0,0
12.12.2019 02:00:00 15,0 5,0 11 6 27 15 NNE 1025,1 0,0
12.12.2019 01:00:00 16,1 6,5 4 2 14 8 NNE 1025,5 -
12.12.2019 00:00:00 16,1 4,5 9 5 23 12 NNE 1025,2 0,0
11.12.2019 23:00:00 16,6 4,6 8 4 25 13 NE 1024,2 0,0
11.12.2019 22:00:00 15,2 10,2 1 1 9 5 NW 1023,5 0,0
11.12.2019 21:00:00 15,6 10,2 1 1 6 4 N 1022,8 0,0
11.12.2019 20:00:00 16,4 9,6 3 2 11 6 N 1021,6 0,0
11.12.2019 19:00:00 17,4 6,8 4 2 14 7 E 1021,1 -
11.12.2019 18:00:00 17,5 10,6 7 4 13 7 E 1020,7 0,0
11.12.2019 17:00:00 18,4 11,4 3 2 9 5 E 1019,8 0,0
11.12.2019 16:00:00 18,3 11,3 5 3 18 10 ESE 1019,8 0,0
11.12.2019 15:00:00 18,3 11,8 7 4 13 7 ESE 1019,1 0,0
11.12.2019 14:00:00 17,5 13,1 3 2 18 10 SSE 1020,2 0,0
11.12.2019 13:00:00 17,2 13,0 11 6 16 9 SW 1021,9 -
11.12.2019 12:00:00 17,3 10,6 8 5 21 12 SW 1022,9 0,0
11.12.2019 11:00:00 19,2 8,0 4 2 10 5 SSW 1022,4 0,0
11.12.2019 10:00:00 15,4 1,9 8 5 21 12 E 1023,2 0,0
11.12.2019 09:00:00 13,5 8,9 4 2 9 5 ENE 1023,9 0,0
11.12.2019 08:00:00 13,0 6,5 3 2 10 5 NNE 1024,5 0,0
11.12.2019 07:00:00 13,0 2,3 4 2 10 6 NE 1023,9 -
11.12.2019 06:00:00 12,3 9,3 4 2 8 4 NNE 1023,8 0,0
11.12.2019 05:00:00 12,5 9,3 5 3 9 5 N 1023,9 0,0
11.12.2019 04:00:00 13,0 9,8 2 1 8 4 NW 1024,4 0,0
11.12.2019 03:00:00 12,5 9,7 5 3 8 5 N 1024,9 0,0
11.12.2019 02:00:00 12,9 9,7 6 3 8 4 N 1025,3 0,0
11.12.2019 01:00:00 13,0 10,8 3 2 8 4 N 1025,8 -
11.12.2019 00:00:00 13,0 10,8 1 1 6 3 NNW 1026,2 0,0
10.12.2019 23:00:00 13,7 12,2 4 2 9 5 N 1026,1 0,0
10.12.2019 22:00:00 13,7 11,8 2 1 7 4 NNW 1026,2 0,0
10.12.2019 21:00:00 14,2 12,2 2 1 6 3 NNW 1026,3 0,0
10.12.2019 20:00:00 14,7 13,3 4 2 12 6 NNW 1026,3 0,0
10.12.2019 19:00:00 15,4 13,6 5 3 22 12 WNW 1026,2 -
10.12.2019 18:00:00 15,9 13,9 13 7 21 11 WSW 1025,9 0,0
10.12.2019 17:00:00 17,1 14,9 7 4 14 8 WSW 1025,3 0,0
10.12.2019 16:00:00 17,1 14,9 9 5 24 13 WSW 1025,0 0,0
10.12.2019 15:00:00 16,8 15,0 14 8 23 12 WSW 1025,2 0,0
10.12.2019 14:00:00 16,9 12,8 15 8 21 12 WSW 1026,1 0,0
10.12.2019 13:00:00 17,9 11,2 9 5 14 8 SW 1026,9 -
10.12.2019 12:00:00 18,0 9,0 6 3 10 5 SW 1027,6 0,0
10.12.2019 11:00:00 18,5 5,6 4 2 11 6 W 1027,5 0,0
10.12.2019 10:00:00 16,7 4,1 4 2 13 7 ENE 1027,8 0,0
10.12.2019 09:00:00 14,1 5,5 3 2 11 6 NE 1028,5 0,0
10.12.2019 08:00:00 13,1 5,0 5 3 11 6 E 1028,3 0,0
10.12.2019 07:00:00 12,6 6,2 3 2 7 4 NNE 1028,4 -
10.12.2019 06:00:00 14,4 5,9 3 2 14 7 WNW 1028,2 0,0
10.12.2019 05:00:00 12,8 6,8 2 1 10 5 ENE 1028,3 0,0
10.12.2019 04:00:00 13,1 8,0 2 1 19 11 ENE 1028,7 0,0
10.12.2019 03:00:00 14,1 8,9 9 5 19 10 E 1028,1 0,0
10.12.2019 02:00:00 14,0 12,8 2 1 5 3 N 1028,2 0,0
10.12.2019 01:00:00 14,8 13,6 3 2 6 3 N 1028,7 -
10.12.2019 00:00:00 14,8 12,6 2 1 6 4 N 1028,8 0,0
09.12.2019 23:00:00 14,3 11,8 3 2 6 3 N 1028,7 0,0
09.12.2019 22:00:00 14,8 12,1 3 1 5 3 N 1028,7 0,0
09.12.2019 21:00:00 15,1 13,3 0 0 6 4 W 1028,4 0,0
09.12.2019 20:00:00 15,6 14,4 3 2 9 5 WNW 1028,2 0,0
09.12.2019 19:00:00 16,3 14,6 3 2 8 4 W 1027,8 -
09.12.2019 18:00:00 17,2 13,8 6 3 13 7 WSW 1027,3 0,0
09.12.2019 17:00:00 17,5 14,6 7 4 15 8 WSW 1027,0 0,0
09.12.2019 16:00:00 18,9 13,6 5 3 12 6 SSW 1026,2 0,0
09.12.2019 15:00:00 20,9 13,6 3 1 8 5 SW 1024,8 0,0
09.12.2019 14:00:00 19,1 12,6 2 1 8 4 SSW 1027,3 0,0
09.12.2019 13:00:00 19,4 14,9 2 1 11 6 SSW 1027,4 -
09.12.2019 12:00:00 17,9 14,8 8 5 13 7 SW 1028,5 0,0
09.12.2019 11:00:00 19,0 13,7 2 1 10 5 W 1027,3 0,0
09.12.2019 10:00:00 17,6 12,5 5 3 9 5 W 1027,1 0,0
09.12.2019 09:00:00 15,1 8,5 2 1 9 5 NNE 1027,3 0,0
09.12.2019 08:00:00 14,7 8,7 5 3 10 6 WNW 1027,2 0,0
09.12.2019 07:00:00 13,8 9,0 4 2 12 7 N 1026,6 -
09.12.2019 06:00:00 13,9 10,2 4 2 7 4 NNE 1026,3 0,0
09.12.2019 05:00:00 14,4 10,0 4 2 9 5 NNW 1026,1 0,0
09.12.2019 04:00:00 14,9 9,3 5 3 13 7 NW 1025,8 0,0
09.12.2019 03:00:00 13,8 11,0 3 2 8 4 NNE 1026,0 0,0
09.12.2019 02:00:00 13,9 10,9 1 1 8 4 NNE 1025,9 0,0
09.12.2019 01:00:00 14,3 12,0 2 1 10 5 NNE 1026,2 -
09.12.2019 00:00:00 14,6 10,6 4 2 16 9 NE 1026,2 0,0
08.12.2019 23:00:00 14,5 10,9 2 1 19 11 ENE 1026,0 0,0
08.12.2019 22:00:00 14,8 11,9 7 4 16 9 E 1026,1 0,0
08.12.2019 21:00:00 14,8 13,2 3 2 6 3 ENE 1026,2 0,0
08.12.2019 20:00:00 14,8 13,1 2 1 5 3 NNW 1026,3 0,0
08.12.2019 19:00:00 14,7 13,0 4 2 17 9 N 1026,0 -
08.12.2019 18:00:00 15,5 13,7 11 6 24 13 WSW 1025,8 0,0
08.12.2019 17:00:00 15,8 13,5 16 9 25 13 W 1025,3 0,0
08.12.2019 16:00:00 16,0 13,3 16 9 30 16 WSW 1025,1 0,0
08.12.2019 15:00:00 16,0 13,0 16 9 29 16 WSW 1024,8 0,0
08.12.2019 14:00:00 16,4 12,7 15 8 25 14 WSW 1025,4 0,0
08.12.2019 13:00:00 16,4 12,3 12 7 23 12 SW 1026,3 -
08.12.2019 12:00:00 16,2 12,0 11 6 18 10 SW 1027,3 0,0
08.12.2019 11:00:00 16,1 11,7 10 6 16 9 WSW 1027,6 0,0
08.12.2019 10:00:00 16,4 12,0 1 0 5 3 ESE 1026,4 0,0
08.12.2019 09:00:00 13,4 11,2 3 2 5 3 N 1027,1 0,0
08.12.2019 08:00:00 12,6 10,6 2 1 6 3 NNE 1027,2 0,0
08.12.2019 07:00:00 12,5 9,9 2 1 7 4 NNE 1026,8 -
08.12.2019 06:00:00 12,9 10,8 4 2 6 3 NNE 1026,5 0,0
08.12.2019 05:00:00 12,6 10,5 4 2 7 4 N 1026,4 0,0
08.12.2019 04:00:00 12,8 10,9 1 1 4 2 NE 1026,9 0,0
08.12.2019 03:00:00 13,1 11,3 1 1 4 2 NNE 1027,2 0,0
08.12.2019 02:00:00 13,4 11,7 0 0 4 2 W 1027,3 0,0
08.12.2019 01:00:00 14,3 12,3 0 0 6 3 NNW 1027,3 -
08.12.2019 00:00:00 14,7 13,0 1 0 10 5 NE 1027,4 0,0
07.12.2019 23:00:00 15,3 13,7 7 4 16 9 SW 1027,3 0,0
07.12.2019 22:00:00 15,4 13,6 9 5 16 9 SW 1027,0 0,0
07.12.2019 21:00:00 15,4 13,6 12 6 23 12 W 1026,4 0,0
07.12.2019 20:00:00 15,5 13,6 14 7 23 12 W 1025,8 0,0
07.12.2019 19:00:00 15,5 13,6 15 8 23 12 W 1025,0 -
07.12.2019 18:00:00 15,7 13,4 14 8 55 30 W 1024,6 0,0
07.12.2019 17:00:00 16,1 13,4 17 9 27 15 W 1023,9 0,0
07.12.2019 16:00:00 16,1 13,6 14 8 28 15 WSW 1023,5 0,0
07.12.2019 15:00:00 16,4 13,2 15 8 29 16 SW 1023,5 0,0
07.12.2019 14:00:00 16,7 13,5 19 11 31 17 WSW 1023,0 0,0
07.12.2019 13:00:00 16,8 13,2 20 11 31 17 W 1023,6 -
07.12.2019 12:00:00 16,8 12,7 16 8 26 14 WSW 1024,4 0,0
07.12.2019 11:00:00 16,5 13,3 16 9 25 14 W 1024,6 0,0
07.12.2019 10:00:00 16,4 13,4 13 7 20 11 W 1024,2 0,0
07.12.2019 09:00:00 15,8 10,8 4 2 11 6 W 1024,0 0,0
07.12.2019 08:00:00 14,9 8,7 1 1 6 3 N 1023,3 0,0
07.12.2019 07:00:00 15,4 8,7 2 1 6 3 N 1022,6 -
07.12.2019 06:00:00 15,4 9,0 1 1 5 3 N 1022,1 0,0
07.12.2019 05:00:00 15,9 9,6 1 0 9 5 NNW 1021,7 0,0
07.12.2019 04:00:00 16,6 9,0 4 2 11 6 WNW 1021,7 0,0
07.12.2019 03:00:00 16,5 7,4 3 2 15 8 NW 1022,0 0,0
07.12.2019 02:00:00 16,5 7,4 6 3 13 7 NNE 1022,0 0,0
07.12.2019 01:00:00 16,4 8,4 1 1 10 5 NW 1022,2 -
07.12.2019 00:00:00 15,9 8,7 0 0 7 4 N 1022,3 0,0
06.12.2019 23:00:00 16,4 9,0 2 1 5 3 E 1022,2 0,0
06.12.2019 22:00:00 16,6 9,3 2 1 14 8 E 1021,5 0,0
06.12.2019 21:00:00 16,5 9,2 6 4 20 11 E 1021,7 0,0
06.12.2019 20:00:00 16,7 9,8 6 4 24 13 E 1021,3 0,0
06.12.2019 19:00:00 16,6 10,0 6 4 27 14 E 1020,8 -
06.12.2019 18:00:00 16,7 10,3 13 7 29 16 ESE 1020,2 0,0
06.12.2019 17:00:00 17,7 10,8 8 4 27 14 ENE 1019,4 0,0
06.12.2019 16:00:00 18,8 10,9 10 5 27 15 E 1018,1 0,0
06.12.2019 15:00:00 18,7 11,0 10 5 28 15 E 1017,8 0,0
06.12.2019 14:00:00 19,5 9,9 14 8 28 15 ESE 1018,3 0,0
06.12.2019 13:00:00 19,6 9,2 9 5 21 12 ESE 1019,0 -
06.12.2019 12:00:00 20,4 7,4 8 5 24 13 E 1019,5 0,0

tt = temperature
td = dewpoint
ff = wind speed
fx = gusts
dd = wind direction
ppp = reduced air pressure
rr = precipitation

Next stations